Time;durP1;ratioP1;P1;durP2;ratioP2;P2;SDS_P1;SDS_P2;PMS_P1;PMS_P2;Temp;Humidity;BMP_temperature;BMP_pressure;BME280_temperature;BME280_humidity;BME280_pressure;Samples;Min_cycle;Max_cycle;Signal;HPM_P1;HPM_P2
2024/01/30 00:01:17;;;;;;;12.07;8.77;;;;;;;7.24;100.00;102352.75;5111905;28;20059;-82
2024/01/30 00:03:42;;;;;;;12.57;8.25;;;;;;;7.28;100.00;102359.41;5112042;28;20047;-81
2024/01/30 00:06:08;;;;;;;12.15;8.80;;;;;;;7.23;100.00;102359.03;5111965;28;20035;-83
2024/01/30 00:08:34;;;;;;;10.38;8.10;;;;;;;7.17;100.00;102354.31;5112057;28;20023;-83
2024/01/30 00:10:59;;;;;;;12.10;8.40;;;;;;;7.13;100.00;102351.16;5094313;28;20035;-84
2024/01/30 00:13:24;;;;;;;10.20;8.25;;;;;;;7.15;100.00;102357.13;5094881;28;20024;-83
2024/01/30 00:15:50;;;;;;;12.73;8.50;;;;;;;7.15;100.00;102355.31;5094605;28;20114;-83
2024/01/30 00:18:16;;;;;;;13.98;8.82;;;;;;;7.10;100.00;102352.28;5093520;28;20051;-82
2024/01/30 00:20:42;;;;;;;11.52;8.27;;;;;;;6.99;100.00;102336.59;5113259;28;20398;-83
2024/01/30 00:23:08;;;;;;;14.68;8.95;;;;;;;7.04;100.00;102352.91;5112006;28;20039;-85
2024/01/30 00:25:33;;;;;;;11.95;8.55;;;;;;;7.00;100.00;102343.56;5111784;28;20035;-84
2024/01/30 00:27:58;;;;;;;13.25;9.02;;;;;;;7.00;100.00;102346.22;5111774;28;20069;-83
2024/01/30 00:30:24;;;;;;;9.55;7.97;;;;;;;7.02;100.00;102354.06;5111644;28;20019;-83
2024/01/30 00:32:49;;;;;;;13.75;9.18;;;;;;;6.98;100.00;102348.22;5113370;28;20027;-84
2024/01/30 00:35:15;;;;;;;11.18;8.40;;;;;;;6.98;100.00;102342.06;5096901;28;20379;-85
2024/01/30 00:37:40;;;;;;;10.65;7.78;;;;;;;6.93;100.00;102334.50;5115193;28;20136;-83
2024/01/30 00:40:06;;;;;;;10.35;7.43;;;;;;;6.97;100.00;102338.56;5096847;28;20428;-83
2024/01/30 00:42:31;;;;;;;12.90;8.20;;;;;;;6.97;100.00;102338.56;5096776;28;20031;-82
2024/01/30 00:44:57;;;;;;;11.13;8.40;;;;;;;6.94;100.00;102341.53;5115206;28;20015;-82
2024/01/30 00:47:23;;;;;;;10.23;7.78;;;;;;;6.80;100.00;102328.75;5115130;28;20032;-82
2024/01/30 00:49:48;;;;;;;12.27;8.02;;;;;;;6.83;100.00;102336.44;5114856;28;20031;-82
2024/01/30 00:52:13;;;;;;;12.30;8.00;;;;;;;6.78;100.00;102326.25;5114896;28;20035;-81
2024/01/30 00:54:39;;;;;;;11.38;8.20;;;;;;;6.77;100.00;102329.06;5115047;28;20024;-83
2024/01/30 00:57:04;;;;;;;10.60;7.30;;;;;;;6.78;100.00;102338.72;5114820;28;20035;-83
2024/01/30 00:59:30;;;;;;;11.88;8.10;;;;;;;6.75;100.00;102325.72;5114968;28;20107;-83
2024/01/30 01:01:57;;;;;;;11.75;7.78;;;;;;;6.75;100.00;102323.06;5096487;28;20533;-83
2024/01/30 01:04:22;;;;;;;11.38;7.97;;;;;;;6.72;100.00;102326.88;5114688;28;20089;-83
2024/01/30 01:06:47;;;;;;;9.80;8.02;;;;;;;6.69;100.00;102331.66;5096400;28;20023;-84
2024/01/30 01:09:13;;;;;;;12.18;8.68;;;;;;;6.70;100.00;102333.31;5114789;28;20036;-83
2024/01/30 01:11:38;;;;;;;10.70;8.10;;;;;;;6.69;100.00;102329.84;5114631;28;20020;-83
2024/01/30 01:14:04;;;;;;;13.18;9.52;;;;;;;6.69;100.00;102326.34;5096358;28;20373;-83
2024/01/30 01:16:30;;;;;;;9.90;7.60;;;;;;;6.61;100.00;102315.63;5096131;28;20123;-83
2024/01/30 01:18:55;;;;;;;10.38;7.55;;;;;;;6.63;100.00;102324.25;5096495;28;20055;-84
2024/01/30 01:21:20;;;;;;;10.85;7.93;;;;;;;6.59;100.00;102315.75;5114488;28;20020;-83
2024/01/30 01:23:46;;;;;;;10.30;7.60;;;;;;;6.59;100.00;102325.56;5114398;28;20077;-83
2024/01/30 01:26:11;;;;;;;9.45;7.68;;;;;;;6.59;100.00;102325.56;5114544;28;20031;-84
2024/01/30 01:28:36;;;;;;;13.90;8.35;;;;;;;6.62;100.00;102311.97;5114720;28;20076;-84
2024/01/30 01:31:05;;;;;;;11.98;7.38;;;;;;;6.65;100.00;102319.63;5114674;28;20429;-84
2024/01/30 01:33:35;;;;;;;14.52;8.05;;;;;;;6.66;100.00;102321.34;5096173;28;20026;-83
2024/01/30 01:36:04;;;;;;;12.15;8.45;;;;;;;6.69;100.00;102318.38;5114546;28;20024;-85
2024/01/30 01:38:29;;;;;;;12.00;8.25;;;;;;;6.69;100.00;102307.75;5114572;28;20078;-85
2024/01/30 01:40:54;;;;;;;9.43;7.82;;;;;;;6.76;100.00;102311.44;5114504;28;20487;-84
2024/01/30 01:43:20;;;;;;;10.48;8.32;;;;;;;6.76;100.00;102306.13;5114168;28;20058;-85
2024/01/30 01:45:45;;;;;;;10.65;7.60;;;;;;;6.81;100.00;102310.00;5114276;28;20030;-82
2024/01/30 01:48:12;;;;;;;14.70;8.48;;;;;;;6.88;100.00;102304.91;5115973;28;20028;-82
2024/01/30 01:50:39;;;;;;;10.98;7.88;;;;;;;6.89;100.00;102297.75;5114664;28;20027;-81
2024/01/30 01:53:07;;;;;;;10.23;8.07;;;;;;;6.93;100.00;102296.44;5114324;28;20455;-81
2024/01/30 01:55:34;;;;;;;12.55;7.90;;;;;;;6.89;100.00;102293.28;5114883;28;20077;-82
2024/01/30 01:57:59;;;;;;;17.42;8.15;;;;;;;6.93;100.00;102297.28;5097401;28;20541;-82
2024/01/30 02:00:25;;;;;;;11.95;7.32;;;;;;;6.96;100.00;102293.50;5114384;28;20027;-85
2024/01/30 02:02:54;;;;;;;10.55;7.88;;;;;;;6.99;100.00;102293.19;5096091;28;20526;-82
2024/01/30 02:05:19;;;;;;;11.57;7.63;;;;;;;7.04;100.00;102293.56;5115413;28;20027;-82
2024/01/30 02:07:45;;;;;;;12.65;8.00;;;;;;;7.05;100.00;102285.44;5114059;28;20384;-81
2024/01/30 02:10:11;;;;;;;9.20;7.68;;;;;;;7.02;100.00;102285.75;5113810;28;20072;-81
2024/01/30 02:12:36;;;;;;;10.75;7.05;;;;;;;7.03;100.00;102287.41;5113918;28;20096;-81
2024/01/30 02:15:01;;;;;;;10.55;7.47;;;;;;;6.97;100.00;102290.69;5113647;28;20055;-81
2024/01/30 02:17:27;;;;;;;10.00;7.97;;;;;;;6.94;100.00;102288.34;5095879;28;20020;-81
2024/01/30 02:19:52;;;;;;;11.30;7.97;;;;;;;6.96;100.00;102291.69;5114449;28;20032;-80
2024/01/30 02:22:19;;;;;;;12.52;7.43;;;;;;;6.92;100.00;102286.81;5115191;28;20087;-80
2024/01/30 02:24:45;;;;;;;11.30;7.43;;;;;;;6.96;100.00;102291.69;5113674;28;20051;-81
2024/01/30 02:27:10;;;;;;;9.63;6.75;;;;;;;7.00;100.00;102287.72;5114641;28;20132;-80
2024/01/30 02:29:36;;;;;;;10.02;7.57;;;;;;;7.03;100.00;102298.06;5115950;28;20028;-80
2024/01/30 02:32:01;;;;;;;11.63;7.72;;;;;;;7.04;100.00;102289.09;5115973;28;20035;-79
2024/01/30 02:34:27;;;;;;;11.77;7.10;;;;;;;7.08;100.00;102292.25;5096587;28;20104;-79
2024/01/30 02:36:52;;;;;;;11.13;8.10;;;;;;;7.11;100.00;102299.94;5095498;28;20081;-80
2024/01/30 02:39:17;;;;;;;12.40;7.97;;;;;;;7.06;100.00;102280.94;5095340;28;20088;-82
2024/01/30 02:41:43;;;;;;;10.68;7.47;;;;;;;7.04;100.00;102273.13;5113272;28;20027;-81
2024/01/30 02:44:08;;;;;;;10.57;7.40;;;;;;;7.09;100.00;102276.16;5095110;28;20104;-81
2024/01/30 02:46:33;;;;;;;10.80;7.38;;;;;;;7.10;100.00;102279.63;5113330;28;20032;-81
2024/01/30 02:48:59;;;;;;;9.73;7.28;;;;;;;7.11;100.00;102276.81;5094859;28;20032;-81
2024/01/30 02:51:24;;;;;;;8.68;7.38;;;;;;;7.15;100.00;102285.31;5094976;28;20124;-81
2024/01/30 02:53:49;;;;;;;10.77;8.07;;;;;;;7.13;100.00;102279.31;5112979;28;20035;-81
2024/01/30 02:56:15;;;;;;;10.98;7.55;;;;;;;7.12;100.00;102275.00;5115591;28;20077;-81
2024/01/30 02:58:40;;;;;;;12.30;7.78;;;;;;;7.09;100.00;102281.47;5096860;28;20059;-81
2024/01/30 03:01:06;;;;;;;11.25;7.10;;;;;;;7.09;100.00;102281.47;5113267;28;20043;-81
2024/01/30 03:03:32;;;;;;;9.15;7.30;;;;;;;7.06;100.00;102272.97;5113302;28;20029;-82
2024/01/30 03:05:57;;;;;;;9.13;7.13;;;;;;;7.07;100.00;102267.50;5094802;28;20028;-81
2024/01/30 03:08:22;;;;;;;10.10;7.30;;;;;;;7.02;100.00;102261.81;5094864;28;20507;-81
2024/01/30 03:10:48;;;;;;;10.63;8.35;;;;;;;7.08;100.00;102270.97;5094722;28;20020;-81
2024/01/30 03:13:13;;;;;;;9.05;7.30;;;;;;;7.08;100.00;102269.16;5112776;28;20429;-81
2024/01/30 03:15:39;;;;;;;12.25;7.88;;;;;;;7.07;100.00;102264.00;5113240;28;20027;-81
2024/01/30 03:18:04;;;;;;;10.93;7.35;;;;;;;7.09;100.00;102264.69;5094563;28;20080;-81
2024/01/30 03:20:30;;;;;;;11.40;7.57;;;;;;;7.00;100.00;102250.50;5094637;28;20454;-81
2024/01/30 03:22:56;;;;;;;9.63;8.15;;;;;;;7.01;100.00;102252.16;5094556;28;20027;-81
2024/01/30 03:25:21;;;;;;;11.43;7.95;;;;;;;7.00;100.00;102254.97;5112770;28;20032;-81
2024/01/30 03:27:47;;;;;;;9.95;7.90;;;;;;;6.96;100.00;102254.47;5077509;28;20023;-81
2024/01/30 03:30:12;;;;;;;12.52;7.47;;;;;;;6.92;100.00;102249.59;5094559;28;20024;-82
2024/01/30 03:32:37;;;;;;;10.10;7.40;;;;;;;6.92;100.00;102245.09;5112533;28;20032;-82
2024/01/30 03:35:03;;;;;;;11.70;7.50;;;;;;;6.87;100.00;102239.41;5112493;28;20020;-82
2024/01/30 03:37:29;;;;;;;11.15;7.57;;;;;;;6.90;100.00;102238.28;5094178;28;20084;-83
2024/01/30 03:39:54;;;;;;;10.00;7.55;;;;;;;6.91;100.00;102246.09;5094194;28;20024;-83
2024/01/30 03:42:20;;;;;;;10.10;8.05;;;;;;;6.93;100.00;102248.59;5094153;28;20095;-82
2024/01/30 03:44:45;;;;;;;11.25;8.77;;;;;;;6.98;100.00;102247.16;5112403;28;20016;-82
2024/01/30 03:47:10;;;;;;;9.63;7.35;;;;;;;7.03;100.00;102250.19;5094168;28;20032;-82
2024/01/30 03:49:36;;;;;;;11.52;8.00;;;;;;;7.05;100.00;102256.19;5093983;28;20026;-83
2024/01/30 03:52:01;;;;;;;9.98;7.43;;;;;;;7.07;100.00;102262.16;5094037;28;20036;-82
2024/01/30 03:54:26;;;;;;;9.98;7.50;;;;;;;7.13;100.00;102255.38;5113104;28;20019;-81
2024/01/30 03:56:52;;;;;;;15.60;8.73;;;;;;;7.10;100.00;102253.03;5096954;28;20494;-81
2024/01/30 03:59:22;;;;;;;12.75;8.07;;;;;;;7.14;100.00;102260.53;5094826;28;20042;-82
2024/01/30 04:01:47;;;;;;;12.18;7.00;;;;;;;7.07;100.00;102248.88;5112110;28;20022;-81
2024/01/30 04:04:12;;;;;;;10.90;7.90;;;;;;;7.12;100.00;102264.34;5112228;28;20019;-82
2024/01/30 04:06:38;;;;;;;12.52;7.97;;;;;;;7.15;100.00;102262.22;5111040;28;20375;-82
2024/01/30 04:09:03;;;;;;;8.63;6.97;;;;;;;7.14;100.00;102260.53;5111899;28;20093;-82
2024/01/30 04:11:28;;;;;;;11.63;7.78;;;;;;;7.16;100.00;102257.72;5093966;28;20028;-83
2024/01/30 04:13:54;;;;;;;10.68;7.88;;;;;;;7.20;100.00;102261.75;5093858;28;20485;-82
2024/01/30 04:16:23;;;;;;;12.10;7.82;;;;;;;7.13;100.00;102247.41;5093755;28;20421;-82
2024/01/30 04:18:48;;;;;;;10.48;7.50;;;;;;;7.18;100.00;102252.25;5111704;28;20476;-82
2024/01/30 04:21:14;;;;;;;11.75;7.95;;;;;;;7.21;100.00;102251.94;5111791;28;20024;-81
2024/01/30 04:23:40;;;;;;;8.95;7.45;;;;;;;7.18;100.00;102245.09;5111908;28;20483;-81
2024/01/30 04:26:06;;;;;;;10.00;7.03;;;;;;;7.21;100.00;102251.94;5111766;28;20035;-82
2024/01/30 04:28:31;;;;;;;10.57;7.57;;;;;;;7.17;100.00;102248.75;5111669;28;20388;-82
2024/01/30 04:30:56;;;;;;;11.75;8.20;;;;;;;7.24;100.00;102235.69;5093531;28;20028;-82
2024/01/30 04:33:22;;;;;;;11.40;7.18;;;;;;;7.26;100.00;102241.69;5093358;28;20498;-83
2024/01/30 04:35:47;;;;;;;10.82;7.32;;;;;;;7.31;100.00;102232.22;5111963;28;20032;-81
2024/01/30 04:38:14;;;;;;;10.15;6.90;;;;;;;7.29;100.00;102223.56;5093336;28;20027;-83
2024/01/30 04:40:40;;;;;;;12.45;7.13;;;;;;;7.30;100.00;102221.75;5111455;28;20046;-83
2024/01/30 04:43:05;;;;;;;11.98;6.80;;;;;;;7.29;100.00;102217.41;5111475;28;20468;-83
2024/01/30 04:45:30;;;;;;;10.80;7.57;;;;;;;7.37;100.00;102214.78;5093270;28;20027;-83
2024/01/30 04:47:56;;;;;;;9.95;7.32;;;;;;;7.42;100.00;102220.47;5111653;28;20036;-82
2024/01/30 04:50:21;;;;;;;9.75;7.18;;;;;;;7.42;100.00;102218.63;5093195;28;20027;-82
2024/01/30 04:52:46;;;;;;;11.00;7.65;;;;;;;7.46;100.00;102219.16;5093146;28;20028;-82
2024/01/30 04:55:12;;;;;;;15.93;7.78;;;;;;;7.50;100.00;102223.16;5093026;28;20024;-84
2024/01/30 04:57:38;;;;;;;13.00;7.13;;;;;;;7.58;100.00;102228.53;5093141;28;20023;-82
2024/01/30 05:00:05;;;;;;;9.98;6.85;;;;;;;7.61;100.00;102228.22;5111619;28;20064;-82
2024/01/30 05:02:30;;;;;;;10.85;7.03;;;;;;;7.64;100.00;102219.91;5092975;28;20425;-82
2024/01/30 05:04:56;;;;;;;9.30;7.05;;;;;;;7.70;100.00;102224.56;5111402;28;20027;-82
2024/01/30 05:07:21;;;;;;;8.15;6.13;;;;;;;7.67;100.00;102216.91;5111286;28;20032;-83
2024/01/30 05:09:47;;;;;;;9.50;6.85;;;;;;;7.77;100.00;102230.09;5111045;28;20035;-83
2024/01/30 05:12:12;;;;;;;9.57;7.18;;;;;;;7.76;100.00;102228.41;5111326;28;20028;-82
2024/01/30 05:14:37;;;;;;;9.93;7.43;;;;;;;7.78;100.00;102221.09;5111241;28;20058;-84
2024/01/30 05:17:03;;;;;;;10.93;7.22;;;;;;;7.80;100.00;102221.78;5111081;28;20129;-84
2024/01/30 05:19:28;;;;;;;9.00;7.38;;;;;;;7.84;100.00;102228.47;5113551;28;20019;-84
2024/01/30 05:21:54;;;;;;;11.13;6.95;;;;;;;7.81;100.00;102222.63;5096273;28;20028;-84
2024/01/30 05:24:19;;;;;;;9.32;7.43;;;;;;;7.85;100.00;102218.66;5114539;28;20383;-83
2024/01/30 05:26:44;;;;;;;9.93;6.72;;;;;;;7.85;100.00;102208.00;5096115;28;20054;-84
2024/01/30 05:29:10;;;;;;;9.57;6.93;;;;;;;7.88;100.00;102223.66;5096234;28;20369;-83
2024/01/30 05:31:35;;;;;;;13.38;6.53;;;;;;;7.86;100.00;102221.16;5114445;28;20028;-83
2024/01/30 05:34:01;;;;;;;11.55;7.38;;;;;;;7.86;100.00;102223.81;5096167;28;20066;-83
2024/01/30 05:36:27;;;;;;;9.55;6.10;;;;;;;7.88;100.00;102223.66;5114317;28;20123;-83
2024/01/30 05:38:52;;;;;;;10.25;7.43;;;;;;;7.89;100.00;102222.66;5114455;28;20073;-82
2024/01/30 05:41:18;;;;;;;9.70;7.40;;;;;;;7.90;100.00;102221.66;5114193;28;20020;-84
2024/01/30 05:43:43;;;;;;;10.93;7.40;;;;;;;7.87;100.00;102220.16;5114330;28;20030;-83
2024/01/30 05:46:08;;;;;;;8.77;7.10;;;;;;;7.86;100.00;102217.66;5114355;28;20094;-82
2024/01/30 05:48:35;;;;;;;8.57;6.43;;;;;;;7.88;100.00;102228.97;5114236;28;20063;-82
2024/01/30 05:51:00;;;;;;;8.93;7.30;;;;;;;7.91;100.00;102213.50;5114213;28;20068;-82
2024/01/30 05:53:26;;;;;;;9.68;7.13;;;;;;;8.01;100.00;102232.81;5095914;28;20031;-83
2024/01/30 05:55:51;;;;;;;9.52;7.55;;;;;;;8.02;100.00;102215.84;5113961;28;20099;-83
2024/01/30 05:58:16;;;;;;;13.93;7.05;;;;;;;8.07;100.00;102210.03;5113941;28;20023;-82
2024/01/30 06:00:42;;;;;;;10.00;7.72;;;;;;;8.07;100.00;102220.69;5114031;28;20024;-82
2024/01/30 06:03:07;;;;;;;10.95;7.15;;;;;;;8.08;100.00;102222.34;5095788;28;20562;-82
2024/01/30 06:05:32;;;;;;;9.13;6.85;;;;;;;8.07;100.00;102224.19;5095766;28;20110;-82
2024/01/30 06:07:58;;;;;;;9.77;7.00;;;;;;;8.08;100.00;102241.00;5095775;28;20472;-82
2024/01/30 06:10:23;;;;;;;10.35;7.70;;;;;;;8.06;100.00;102229.66;5113894;28;20019;-82
2024/01/30 06:12:49;;;;;;;10.52;7.00;;;;;;;8.06;100.00;102230.50;5095578;28;20123;-75
2024/01/30 06:15:14;;;;;;;13.70;7.15;;;;;;;8.05;100.00;102233.31;5113620;28;20035;-76
2024/01/30 06:17:40;;;;;;;8.75;6.60;;;;;;;8.06;100.00;102227.84;5095237;28;20499;-77
2024/01/30 06:20:06;;;;;;;10.00;7.40;;;;;;;8.11;100.00;102230.03;5095339;28;20028;-77
2024/01/30 06:22:31;;;;;;;10.25;7.00;;;;;;;8.13;100.00;102232.53;5095261;28;20480;-79
2024/01/30 06:24:56;;;;;;;10.75;7.18;;;;;;;8.13;100.00;102228.03;5095259;28;20080;-79
2024/01/30 06:27:22;;;;;;;10.98;7.50;;;;;;;8.19;100.00;102238.03;5095177;28;20164;-78
2024/01/30 06:29:47;;;;;;;10.07;7.20;;;;;;;8.21;100.00;102229.88;5112166;28;20055;-78
2024/01/30 06:32:12;;;;;;;10.60;7.28;;;;;;;8.16;100.00;102232.22;5095043;28;20101;-78
2024/01/30 06:34:39;;;;;;;9.65;6.65;;;;;;;8.13;100.00;102233.38;5094911;28;20027;-78
2024/01/30 06:37:05;;;;;;;10.57;6.90;;;;;;;8.21;100.00;102248.53;5095022;28;20039;-77
2024/01/30 06:39:30;;;;;;;11.20;7.00;;;;;;;8.18;100.00;102247.03;5095074;28;20024;-78
2024/01/30 06:41:56;;;;;;;13.15;9.55;;;;;;;8.17;100.00;102248.03;5113359;28;20034;-76
2024/01/30 06:44:21;;;;;;;9.57;6.80;;;;;;;8.16;100.00;102245.53;5113288;28;20387;-77
2024/01/30 06:46:47;;;;;;;9.82;7.40;;;;;;;8.20;100.00;102253.03;5113051;28;20089;-74
2024/01/30 06:49:12;;;;;;;10.20;6.68;;;;;;;8.15;100.00;102235.88;5113126;28;20028;-74
2024/01/30 06:51:38;;;;;;;9.10;7.30;;;;;;;8.24;100.00;102254.34;5113062;28;20088;-73
2024/01/30 06:54:03;;;;;;;13.07;7.20;;;;;;;8.21;100.00;102251.19;5094598;28;20023;-73
2024/01/30 06:56:29;;;;;;;11.95;7.00;;;;;;;8.24;100.00;102251.69;5112825;28;20065;-73
2024/01/30 06:58:54;;;;;;;9.88;7.07;;;;;;;8.29;100.00;102260.03;5094691;28;20465;-76
2024/01/30 07:01:20;;;;;;;10.98;7.57;;;;;;;8.30;100.00;102261.69;5112936;28;20028;-80
2024/01/30 07:03:46;;;;;;;13.00;7.38;;;;;;;8.28;100.00;102266.34;5094653;28;20071;-79
2024/01/30 07:06:11;;;;;;;9.60;6.82;;;;;;;8.30;100.00;102283.00;5094501;28;20023;-75
2024/01/30 07:08:38;;;;;;;12.77;7.07;;;;;;;8.34;100.00;102292.38;5094868;28;20024;-76
2024/01/30 07:11:07;;;;;;;10.05;7.47;;;;;;;8.33;100.00;102288.03;5112876;28;20448;-76
2024/01/30 07:13:33;;;;;;;11.43;7.82;;;;;;;8.39;100.00;102291.91;5112656;28;20472;-76
2024/01/30 07:15:59;;;;;;;8.77;7.07;;;;;;;8.42;100.00;102286.25;5112560;28;20042;-75
2024/01/30 07:18:24;;;;;;;10.60;6.85;;;;;;;8.38;100.00;102285.75;5112558;28;20031;-74
2024/01/30 07:20:50;;;;;;;9.45;7.75;;;;;;;8.41;100.00;102278.41;5094351;28;20020;-75
2024/01/30 07:23:17;;;;;;;13.30;8.48;;;;;;;8.49;100.00;102291.75;5112591;28;20470;-75
2024/01/30 07:25:48;;;;;;;11.48;6.60;;;;;;;8.48;100.00;102295.41;5112372;28;20026;-74
2024/01/30 07:28:16;;;;;;;9.27;6.82;;;;;;;8.54;100.00;102290.25;5094102;28;20501;-74
2024/01/30 07:30:42;;;;;;;12.90;6.93;;;;;;;8.51;100.00;102303.06;5094430;28;20038;-73
2024/01/30 07:33:08;;;;;;;12.57;8.60;;;;;;;8.54;100.00;102303.59;5093758;28;20035;-74
2024/01/30 07:35:34;;;;;;;8.98;7.70;;;;;;;8.58;100.00;102306.75;5111744;28;20026;-76
2024/01/30 07:37:59;;;;;;;12.38;8.00;;;;;;;8.60;100.00;102294.91;5112401;28;20489;-76
2024/01/30 07:40:25;;;;;;;10.88;7.53;;;;;;;8.63;100.00;102291.91;5112049;28;20028;-78
2024/01/30 07:42:50;;;;;;;9.35;6.85;;;;;;;8.62;100.00;102292.91;5093786;28;20051;-77
2024/01/30 07:45:16;;;;;;;9.35;7.82;;;;;;;8.61;100.00;102301.91;5111679;28;20080;-78
2024/01/30 07:47:42;;;;;;;9.13;7.35;;;;;;;8.63;100.00;102299.09;5093874;28;20043;-77
2024/01/30 07:50:08;;;;;;;9.18;7.40;;;;;;;8.68;100.00;102299.44;5111895;28;20055;-75
2024/01/30 07:52:33;;;;;;;10.65;7.20;;;;;;;8.65;100.00;102302.41;5111981;28;20034;-78
2024/01/30 07:54:59;;;;;;;9.73;6.45;;;;;;;8.67;100.00;102309.28;5093856;28;20031;-72
2024/01/30 07:57:24;;;;;;;9.10;7.07;;;;;;;8.67;100.00;102311.94;5112149;28;20097;-74
2024/01/30 07:59:50;;;;;;;10.30;6.68;;;;;;;8.68;100.00;102318.13;5112072;28;20031;-74
2024/01/30 08:02:15;;;;;;;10.30;7.57;;;;;;;8.69;100.00;102331.28;5112202;28;20119;-74
2024/01/30 08:04:41;;;;;;;10.07;6.45;;;;;;;8.66;100.00;102312.09;5112171;28;20028;-74
2024/01/30 08:07:06;;;;;;;10.73;7.07;;;;;;;8.78;100.00;102321.44;5093749;28;20076;-74
2024/01/30 08:09:31;;;;;;;8.05;6.75;;;;;;;8.77;100.00;102318.94;5112419;28;20024;-74
2024/01/30 08:11:57;;;;;;;10.88;7.32;;;;;;;8.81;100.00;102325.63;5112011;28;20388;-76
2024/01/30 08:14:22;;;;;;;9.77;7.72;;;;;;;8.76;100.00;102318.13;5093834;28;20031;-73
2024/01/30 08:16:48;;;;;;;10.68;7.45;;;;;;;8.82;100.00;102319.28;5111966;28;20468;-73
2024/01/30 08:19:15;;;;;;;11.23;7.55;;;;;;;8.88;100.00;102326.59;5093740;28;20392;-78
2024/01/30 08:21:40;;;;;;;11.80;8.25;;;;;;;8.85;100.00;102325.09;5111960;28;20039;-77
2024/01/30 08:24:06;;;;;;;9.60;6.28;;;;;;;8.93;100.00;102329.59;5112234;28;20031;-75
2024/01/30 08:26:32;;;;;;;11.18;7.55;;;;;;;8.96;100.00;102327.47;5112111;28;20396;-74
2024/01/30 08:28:58;;;;;;;9.98;6.75;;;;;;;9.02;100.00;102336.63;5111876;28;20387;-75
2024/01/30 08:31:23;;;;;;;10.18;6.57;;;;;;;9.10;100.00;102330.44;5112264;28;20107;-75
2024/01/30 08:33:49;;;;;;;12.02;7.15;;;;;;;9.15;100.00;102330.78;5093567;28;20039;-75
2024/01/30 08:36:15;;;;;;;9.77;6.72;;;;;;;9.21;100.00;102327.44;5112056;28;20032;-74
2024/01/30 08:38:41;;;;;;;12.32;7.13;;;;;;;9.21;100.00;102333.59;5111607;28;20023;-77
2024/01/30 08:41:07;;;;;;;11.00;7.30;;;;;;;9.26;100.00;102331.28;5093668;28;20571;-73
2024/01/30 08:43:33;;;;;;;9.80;6.85;;;;;;;9.29;100.00;102322.94;5093833;28;20031;-73
2024/01/30 08:45:59;;;;;;;10.18;7.32;;;;;;;9.40;100.00;102340.44;5093870;28;20430;-76
2024/01/30 08:48:25;;;;;;;10.40;6.65;;;;;;;9.40;100.00;102328.91;5111738;28;20225;-75
2024/01/30 08:50:50;;;;;;;7.90;6.72;;;;;;;9.42;100.00;102321.56;5093584;28;20070;-74
2024/01/30 08:53:16;;;;;;;13.10;7.32;;;;;;;9.44;100.00;102328.41;5094271;28;20035;-73
2024/01/30 08:55:41;;;;;;;10.60;6.90;;;;;;;9.50;100.00;102321.53;5115170;28;20020;-75
2024/01/30 08:58:06;;;;;;;12.32;7.68;;;;;;;9.54;100.00;102326.41;5096862;28;20054;-74
2024/01/30 09:00:32;;;;;;;10.80;7.22;;;;;;;9.57;100.00;102326.06;5115191;28;20035;-75
2024/01/30 09:02:57;;;;;;;8.68;7.28;;;;;;;9.60;100.00;102330.22;5115306;28;20373;-75
2024/01/30 09:05:22;;;;;;;12.77;7.65;;;;;;;9.63;100.00;102338.72;5114999;28;20035;-74
2024/01/30 09:07:48;;;;;;;10.65;8.35;;;;;;;9.67;100.00;102335.69;5096652;28;20040;-74
2024/01/30 09:10:13;;;;;;;10.80;8.23;;;;;;;9.73;100.00;102327.00;5114814;28;20036;-73
2024/01/30 09:12:39;;;;;;;10.48;7.47;;;;;;;9.78;100.00;102336.16;5114981;28;20073;-72
2024/01/30 09:15:04;;;;;;;10.95;7.90;;;;;;;9.85;100.00;102331.81;5114801;28;20114;-74
2024/01/30 09:17:30;;;;;;;11.10;8.07;;;;;;;9.90;100.00;102336.63;5114346;28;20031;-75
2024/01/30 09:19:56;;;;;;;10.55;6.57;;;;;;;9.94;100.00;102335.28;5114776;28;20088;-73
2024/01/30 09:22:21;;;;;;;9.18;7.75;;;;;;;10.00;100.00;102347.13;5114911;28;20031;-72
2024/01/30 09:24:46;;;;;;;7.60;6.75;;;;;;;10.09;100.00;102359.41;5114334;28;20027;-72
2024/01/30 09:27:12;;;;;;;10.57;8.68;;;;;;;10.07;100.00;102346.25;5095802;28;20031;-72
2024/01/30 09:29:37;;;;;;;13.57;7.55;;;;;;;10.14;100.00;102347.22;5114705;28;20027;-72
2024/01/30 09:32:04;;;;;;;10.57;6.88;;;;;;;10.15;100.00;102348.06;5096592;28;20361;-73
2024/01/30 09:34:29;;;;;;;11.68;8.50;;;;;;;10.22;100.00;102354.41;5096197;28;20032;-74
2024/01/30 09:36:54;;;;;;;10.95;7.25;;;;;;;10.26;100.00;102354.88;5114168;28;20035;-73
2024/01/30 09:39:20;;;;;;;13.38;8.07;;;;;;;10.34;100.00;102365.53;5113876;28;20050;-72
2024/01/30 09:41:55;;;;;;;11.15;7.95;;;;;;;10.43;100.00;102372.53;5114202;28;20391;-74
2024/01/30 09:44:22;;;;;;;9.85;6.80;;;;;;;10.50;100.00;102368.13;5114514;28;20494;-74
2024/01/30 09:46:49;;;;;;;11.95;7.20;;;;;;;10.56;100.00;102380.78;5096231;28;20038;-75
2024/01/30 09:49:21;;;;;;;11.02;7.57;;;;;;;10.54;100.00;102370.28;5114255;28;20464;-73
2024/01/30 09:51:48;;;;;;;14.82;7.93;;;;;;;10.52;100.00;102380.31;5096319;28;20024;-77
2024/01/30 09:54:14;;;;;;;8.00;6.07;;;;;;;10.52;100.00;102364.28;5114296;28;20032;-76
2024/01/30 09:56:39;;;;;;;11.13;8.10;;;;;;;10.49;100.00;102363.78;5095868;28;20023;-76
2024/01/30 09:59:04;;;;;;;10.85;7.32;;;;;;;10.52;100.00;102366.13;5095755;28;20487;-77
2024/01/30 10:01:31;;;;;;;11.90;8.10;;;;;;;10.58;100.00;102381.44;5095928;28;20602;-77
2024/01/30 10:03:56;;;;;;;9.32;7.10;;;;;;;10.63;100.00;102376.41;5113973;28;20134;-76
2024/01/30 10:06:24;;;;;;;10.90;7.10;;;;;;;10.60;100.00;102376.75;5114215;28;20471;-77
2024/01/30 10:08:49;;;;;;;13.30;8.90;;;;;;;10.59;100.00;102376.94;5095683;28;20024;-77
2024/01/30 10:11:15;;;;;;;9.45;7.47;;;;;;;10.50;100.00;102365.47;5114118;28;20038;-75
2024/01/30 10:13:40;;;;;;;11.57;8.07;;;;;;;10.51;100.00;102372.47;5114037;28;20114;-75
2024/01/30 10:16:06;;;;;;;11.77;7.18;;;;;;;10.53;100.00;102376.63;5113979;28;20035;-74
2024/01/30 10:18:32;;;;;;;12.15;7.60;;;;;;;10.47;100.00;102372.00;5095385;28;20460;-74
2024/01/30 10:20:58;;;;;;;10.48;7.80;;;;;;;10.50;100.00;102379.66;5113800;28;20102;-75
2024/01/30 10:23:24;;;;;;;10.45;7.20;;;;;;;10.50;100.00;102378.84;5095407;28;20034;-76
2024/01/30 10:25:52;;;;;;;12.35;7.50;;;;;;;10.59;100.00;102391.13;5113847;28;20099;-76
2024/01/30 10:28:17;;;;;;;10.82;7.38;;;;;;;10.63;100.00;102395.13;5095496;28;20043;-75
2024/01/30 10:30:43;;;;;;;11.20;7.20;;;;;;;10.64;100.00;102399.47;5113856;28;20093;-75
2024/01/30 10:33:08;;;;;;;12.05;8.63;;;;;;;10.66;100.00;102388.59;5113771;28;20023;-76
2024/01/30 10:35:33;;;;;;;11.05;8.15;;;;;;;10.79;100.00;102400.38;5113587;28;20032;-77
2024/01/30 10:37:59;;;;;;;18.65;8.52;;;;;;;10.81;100.00;102394.84;5113466;28;20081;-77
2024/01/30 10:40:36;;;;;;;12.70;7.18;;;;;;;10.83;100.00;102390.16;5095449;28;20043;-74
2024/01/30 10:43:02;;;;;;;11.43;7.63;;;;;;;10.93;100.00;102397.94;5113666;28;20472;-75
2024/01/30 10:45:28;;;;;;;12.77;7.80;;;;;;;10.85;100.00;102401.53;5095301;28;20027;-74
2024/01/30 10:47:57;;;;;;;12.20;8.98;;;;;;;10.91;100.00;102405.31;5094769;28;20143;-75
2024/01/30 10:50:25;;;;;;;13.55;8.63;;;;;;;10.84;100.00;102400.69;5113259;28;20091;-74
2024/01/30 10:52:52;;;;;;;13.30;8.13;;;;;;;10.88;100.00;102397.66;5113132;28;20036;-77
2024/01/30 10:55:18;;;;;;;11.02;7.70;;;;;;;10.93;100.00;102403.31;5113169;28;20036;-74
2024/01/30 10:57:43;;;;;;;13.00;8.65;;;;;;;10.98;100.00;102392.88;5112945;28;20107;-74
2024/01/30 11:00:12;;;;;;;12.10;7.93;;;;;;;11.06;100.00;102392.84;5113044;28;20448;-74
2024/01/30 11:02:45;;;;;;;10.82;7.78;;;;;;;11.06;100.00;102400.88;5112955;28;20034;-74
2024/01/30 11:05:12;;;;;;;10.95;8.02;;;;;;;11.10;100.00;102394.16;5113159;28;20475;-74
2024/01/30 11:07:41;;;;;;;11.27;8.50;;;;;;;10.99;100.00;102406.13;5113072;28;20077;-74
2024/01/30 11:10:09;;;;;;;14.75;7.47;;;;;;;10.99;100.00;102394.59;5094779;28;20048;-75